createdAt,value
2023-12-15T00:01:36.118Z,13.60
2023-12-15T00:04:05.653Z,12.27
2023-12-15T00:06:35.931Z,13.97
2023-12-15T00:09:05.492Z,14.93
2023-12-15T00:11:36.508Z,10.17
2023-12-15T00:14:05.405Z,12.23
2023-12-15T00:16:34.282Z,10.43
2023-12-15T00:19:05.296Z,9.67
2023-12-15T00:21:40.752Z,9.17
2023-12-15T00:24:10.486Z,9.77
2023-12-15T00:26:39.500Z,8.40
2023-12-15T00:29:08.601Z,10.00
2023-12-15T00:31:39.766Z,9.47
2023-12-15T00:34:09.308Z,11.23
2023-12-15T00:36:45.585Z,12.17
2023-12-15T00:39:14.438Z,11.53
2023-12-15T00:41:43.256Z,9.53
2023-12-15T00:44:12.300Z,9.20
2023-12-15T00:46:43.557Z,11.73
2023-12-15T00:49:14.977Z,8.70
2023-12-15T00:51:45.443Z,11.83
2023-12-15T00:54:14.356Z,8.87
2023-12-15T00:56:43.219Z,10.43
2023-12-15T00:59:21.090Z,8.47
2023-12-15T01:01:49.932Z,12.10
2023-12-15T01:04:19.389Z,7.53
2023-12-15T01:06:49.530Z,10.67
2023-12-15T01:09:20.636Z,11.00
2023-12-15T01:11:49.844Z,8.43
2023-12-15T01:14:19.667Z,8.30
2023-12-15T01:16:49.439Z,7.63
2023-12-15T01:19:19.455Z,9.83
2023-12-15T01:21:49.670Z,6.33
2023-12-15T01:24:20.162Z,7.90
2023-12-15T01:26:51.413Z,11.17
2023-12-15T01:29:19.854Z,8.67
2023-12-15T01:31:48.697Z,7.30
2023-12-15T01:34:17.945Z,7.93
2023-12-15T01:36:46.960Z,9.03
2023-12-15T01:39:19.391Z,10.70
2023-12-15T01:41:48.094Z,11.93
2023-12-15T01:44:19.518Z,10.47
2023-12-15T01:46:47.832Z,11.20
2023-12-15T01:49:19.019Z,13.27
2023-12-15T01:51:47.918Z,11.80
2023-12-15T01:54:20.777Z,11.07
2023-12-15T01:56:49.662Z,14.23
2023-12-15T01:59:20.522Z,10.53
2023-12-15T02:01:49.552Z,10.37
2023-12-15T02:04:20.646Z,11.80
2023-12-15T02:06:49.488Z,9.27
2023-12-15T02:09:23.387Z,9.90
2023-12-15T02:11:52.492Z,10.20
2023-12-15T02:14:21.960Z,9.30
2023-12-15T02:16:51.078Z,9.30
2023-12-15T02:19:23.570Z,6.93
2023-12-15T02:21:52.658Z,6.10
2023-12-15T02:24:22.663Z,7.50
2023-12-15T02:26:51.622Z,6.57
2023-12-15T02:29:23.387Z,5.90
2023-12-15T02:31:52.348Z,6.63
2023-12-15T02:34:25.944Z,7.13
2023-12-15T02:36:54.922Z,7.17
2023-12-15T02:39:25.305Z,6.10
2023-12-15T02:41:54.439Z,5.63
2023-12-15T02:44:23.514Z,8.93
2023-12-15T02:46:52.285Z,6.10
2023-12-15T02:49:23.743Z,6.23
2023-12-15T02:51:52.436Z,6.10
2023-12-15T02:54:23.933Z,7.50
2023-12-15T02:56:54.144Z,7.30
2023-12-15T02:59:25.669Z,6.90
2023-12-15T03:01:54.499Z,6.40
2023-12-15T03:04:23.275Z,7.63
2023-12-15T03:06:52.742Z,6.73
2023-12-15T03:09:21.937Z,7.20
2023-12-15T03:11:51.024Z,7.67
2023-12-15T03:14:23.961Z,7.40
2023-12-15T03:16:52.941Z,6.80
2023-12-15T03:19:21.934Z,7.23
2023-12-15T03:21:50.735Z,6.97
2023-12-15T03:24:19.580Z,7.10
2023-12-15T03:26:48.441Z,8.07
2023-12-15T03:29:19.766Z,7.07
2023-12-15T03:31:51.291Z,7.67
2023-12-15T03:34:20.506Z,8.97
2023-12-15T03:36:49.383Z,11.50
2023-12-15T03:39:20.287Z,8.20
2023-12-15T03:41:48.968Z,11.57
2023-12-15T03:44:18.137Z,6.93
2023-12-15T03:46:47.213Z,9.27
2023-12-15T03:49:17.867Z,7.97
2023-12-15T03:51:46.967Z,7.53
2023-12-15T03:54:15.959Z,6.53
2023-12-15T03:56:44.734Z,7.87
2023-12-15T03:59:15.711Z,8.80
2023-12-15T04:01:44.734Z,8.97
2023-12-15T04:04:14.264Z,7.23
2023-12-15T04:06:44.476Z,10.17
2023-12-15T04:09:15.949Z,8.10
2023-12-15T04:11:44.574Z,6.93
2023-12-15T04:14:14.882Z,7.83
2023-12-15T04:16:43.637Z,6.93
2023-12-15T04:19:14.929Z,8.57
2023-12-15T04:21:45.337Z,8.73
2023-12-15T04:24:15.370Z,9.20
2023-12-15T04:26:44.811Z,7.20
2023-12-15T04:29:13.790Z,8.83
2023-12-15T04:31:44.963Z,6.80
2023-12-15T04:34:13.853Z,7.67
2023-12-15T04:36:42.698Z,7.30
2023-12-15T04:39:15.507Z,8.53
2023-12-15T04:41:44.637Z,8.57
2023-12-15T04:44:14.787Z,8.13
2023-12-15T04:46:43.931Z,7.57
2023-12-15T04:49:13.401Z,8.63
2023-12-15T04:51:42.540Z,9.40
2023-12-15T04:54:13.020Z,6.23
2023-12-15T04:56:41.772Z,7.20
2023-12-15T04:59:10.673Z,7.50
2023-12-15T05:01:39.597Z,6.33
2023-12-15T05:04:08.492Z,7.10
2023-12-15T05:06:37.622Z,6.77
2023-12-15T05:09:10.031Z,7.70
2023-12-15T05:11:43.490Z,7.73
2023-12-15T05:14:14.579Z,7.80
2023-12-15T05:16:43.655Z,7.97
2023-12-15T05:19:14.944Z,8.23
2023-12-15T05:21:43.669Z,8.40
2023-12-15T05:24:12.542Z,7.80
2023-12-15T05:26:43.081Z,9.00
2023-12-15T05:29:15.435Z,8.07
2023-12-15T05:31:45.912Z,7.00
2023-12-15T05:34:17.092Z,8.90
2023-12-15T05:36:46.067Z,7.83
2023-12-15T05:39:15.980Z,7.80
2023-12-15T05:41:46.537Z,7.67
2023-12-15T05:44:15.336Z,9.60
2023-12-15T05:46:44.708Z,9.43
2023-12-15T05:49:16.442Z,10.00
2023-12-15T05:51:48.921Z,7.53
2023-12-15T05:54:20.207Z,9.00
2023-12-15T05:56:53.738Z,11.20
2023-12-15T05:59:22.470Z,11.30
2023-12-15T06:01:51.831Z,7.83
2023-12-15T06:04:21.013Z,8.57
2023-12-15T06:06:51.046Z,8.30
2023-12-15T06:09:19.937Z,8.90
2023-12-15T06:11:50.543Z,11.77
2023-12-15T06:14:21.867Z,7.67
2023-12-15T06:16:51.409Z,8.07
2023-12-15T06:19:20.374Z,9.93
2023-12-15T06:21:49.684Z,10.07
2023-12-15T06:24:20.602Z,8.80
2023-12-15T06:26:50.927Z,9.90
2023-12-15T06:29:19.891Z,10.50
2023-12-15T06:31:50.364Z,10.73
2023-12-15T06:34:19.481Z,8.07
2023-12-15T06:36:49.981Z,9.83
2023-12-15T06:39:20.058Z,8.70
2023-12-15T06:41:50.987Z,10.57
2023-12-15T06:44:20.031Z,8.50
2023-12-15T06:46:49.123Z,9.10
2023-12-15T06:49:21.195Z,7.77
2023-12-15T06:51:50.073Z,12.27
2023-12-15T06:54:19.589Z,9.60
2023-12-15T06:56:48.281Z,9.43
2023-12-15T06:59:21.418Z,9.63
2023-12-15T07:01:52.240Z,9.43
2023-12-15T07:04:21.459Z,11.10
2023-12-15T07:06:50.574Z,9.50
2023-12-15T07:09:20.410Z,10.93
2023-12-15T07:11:49.389Z,9.60
2023-12-15T07:14:22.870Z,11.03
2023-12-15T07:16:51.647Z,11.90
2023-12-15T07:19:20.718Z,10.73
2023-12-15T07:21:51.820Z,12.57
2023-12-15T07:24:20.858Z,14.83
2023-12-15T07:26:51.822Z,12.40
2023-12-15T07:29:23.172Z,12.27
2023-12-15T07:31:52.032Z,12.53
2023-12-15T07:34:21.199Z,13.00
2023-12-15T07:36:50.046Z,12.43
2023-12-15T07:39:23.469Z,14.73
2023-12-15T07:41:55.301Z,13.90
2023-12-15T07:44:25.672Z,14.83
2023-12-15T07:47:04.007Z,15.00
2023-12-15T07:49:35.583Z,11.57
2023-12-15T07:52:05.330Z,13.07
2023-12-15T07:54:34.580Z,12.67
2023-12-15T07:57:05.502Z,10.13
2023-12-15T07:59:49.540Z,12.03
2023-12-15T08:02:21.315Z,12.17
2023-12-15T08:04:50.390Z,12.43
2023-12-15T08:07:19.225Z,12.97
2023-12-15T08:09:48.246Z,12.80
2023-12-15T08:12:19.437Z,12.50
2023-12-15T08:14:49.889Z,12.43
2023-12-15T08:17:21.646Z,14.33
2023-12-15T08:19:51.201Z,15.43
2023-12-15T08:22:20.274Z,14.63
2023-12-15T08:24:58.044Z,13.27
2023-12-15T08:27:27.333Z,13.43
2023-12-15T08:30:00.881Z,12.20
2023-12-15T08:32:30.262Z,12.57
2023-12-15T08:35:00.370Z,14.33
2023-12-15T08:37:29.938Z,17.07
2023-12-15T08:40:00.366Z,13.83
2023-12-15T08:42:29.323Z,13.70
2023-12-15T08:45:03.131Z,12.47
2023-12-15T08:47:34.570Z,14.20
2023-12-15T08:50:04.303Z,11.87
2023-12-15T08:52:33.373Z,13.50
2023-12-15T08:55:03.209Z,11.77
2023-12-15T08:57:34.135Z,10.00
2023-12-15T09:00:10.830Z,14.47
2023-12-15T09:02:40.453Z,10.33
2023-12-15T09:05:24.917Z,10.47
2023-12-15T09:08:03.370Z,9.90
2023-12-15T09:10:34.678Z,10.90
2023-12-15T09:13:04.344Z,10.73
2023-12-15T09:15:37.112Z,9.30
2023-12-15T09:18:10.239Z,11.30
2023-12-15T09:20:40.160Z,9.47
2023-12-15T09:23:10.213Z,10.20
2023-12-15T09:25:40.657Z,10.10
2023-12-15T09:28:10.443Z,9.67
2023-12-15T09:30:40.898Z,11.83
2023-12-15T09:33:10.030Z,11.40
2023-12-15T09:35:39.590Z,11.60
2023-12-15T09:38:08.448Z,12.43
2023-12-15T09:40:40.725Z,14.27
2023-12-15T09:43:09.973Z,11.67
2023-12-15T09:45:45.474Z,11.20
2023-12-15T09:48:21.281Z,11.63
2023-12-15T09:58:04.910Z,9.10
2023-12-15T10:01:37.039Z,9.43
2023-12-15T10:11:40.962Z,10.90
2023-12-15T10:21:54.095Z,8.97
2023-12-15T10:32:16.105Z,7.33
2023-12-15T10:35:47.713Z,8.10
2023-12-15T10:43:04.573Z,7.67
2023-12-15T10:53:28.044Z,5.90
2023-12-15T11:00:23.188Z,5.87
2023-12-15T11:06:40.061Z,6.70
2023-12-15T11:17:37.992Z,7.00
2023-12-15T11:28:10.065Z,6.50
2023-12-15T11:30:41.821Z,6.93
2023-12-15T11:45:08.167Z,8.77
2023-12-15T11:59:34.776Z,7.97
2023-12-15T12:02:58.769Z,6.37
2023-12-15T12:28:10.909Z,5.10
2023-12-15T12:38:21.103Z,6.47
2023-12-15T12:48:22.877Z,5.20
2023-12-15T12:50:53.469Z,6.53
2023-12-15T12:56:35.802Z,5.70
2023-12-15T13:10:08.239Z,6.07
2023-12-15T13:18:48.713Z,5.13
2023-12-15T13:25:31.871Z,4.90
2023-12-15T13:32:00.211Z,5.27
2023-12-15T13:48:47.775Z,4.60
2023-12-15T13:54:21.692Z,5.23
2023-12-15T13:56:53.283Z,6.90
2023-12-15T14:07:51.439Z,4.67
2023-12-15T14:10:21.796Z,4.47
2023-12-15T14:12:51.552Z,6.57
2023-12-15T14:15:20.218Z,7.40
2023-12-15T14:17:49.368Z,4.30
2023-12-15T14:20:22.063Z,4.47
2023-12-15T14:22:50.956Z,3.80
2023-12-15T14:25:26.181Z,4.23
2023-12-15T14:27:57.108Z,5.17
2023-12-15T14:30:26.450Z,5.50
2023-12-15T14:32:59.336Z,5.80
2023-12-15T14:35:28.505Z,6.33
2023-12-15T14:38:00.552Z,7.80
2023-12-15T14:40:30.926Z,9.60
2023-12-15T14:42:59.673Z,6.57
2023-12-15T14:45:28.543Z,4.77
2023-12-15T14:48:19.280Z,5.73
2023-12-15T14:50:49.022Z,5.20
2023-12-15T14:53:18.045Z,4.00
2023-12-15T14:55:48.519Z,4.80
2023-12-15T14:58:18.898Z,4.17
2023-12-15T15:00:47.693Z,5.07
2023-12-15T15:03:19.670Z,4.53
2023-12-15T15:05:48.723Z,4.10
2023-12-15T15:08:18.726Z,4.63
2023-12-15T15:10:48.772Z,5.50
2023-12-15T15:17:46.529Z,5.03
2023-12-15T15:20:47.435Z,7.00
2023-12-15T15:30:45.921Z,5.43
2023-12-15T15:33:17.631Z,5.57
2023-12-15T15:35:47.046Z,6.10
2023-12-15T15:38:15.995Z,6.33
2023-12-15T15:40:45.005Z,7.40
2023-12-15T15:43:13.802Z,6.87
2023-12-15T15:45:45.351Z,4.83
2023-12-15T15:48:23.668Z,4.30
2023-12-15T15:50:52.983Z,4.97
2023-12-15T15:53:23.396Z,6.57
2023-12-15T15:55:52.539Z,5.10
2023-12-15T15:58:23.905Z,4.37
2023-12-15T16:00:53.026Z,4.17
2023-12-15T16:03:23.808Z,5.07
2023-12-15T16:05:52.786Z,6.30
2023-12-15T16:08:21.972Z,5.40
2023-12-15T16:10:51.088Z,4.00
2023-12-15T16:13:20.125Z,4.43
2023-12-15T16:15:49.122Z,5.30
2023-12-15T16:18:21.226Z,6.63
2023-12-15T16:20:51.703Z,7.63
2023-12-15T16:23:20.358Z,6.60
2023-12-15T16:25:49.395Z,4.00
2023-12-15T16:28:20.442Z,6.73
2023-12-15T16:30:49.716Z,7.40
2023-12-15T16:33:17.583Z,8.90
2023-12-15T16:35:46.475Z,7.13
2023-12-15T16:38:24.002Z,7.87
2023-12-15T16:40:52.754Z,7.50
2023-12-15T16:43:22.522Z,7.10
2023-12-15T16:45:51.293Z,5.90
2023-12-15T16:48:20.872Z,7.70
2023-12-15T16:50:49.924Z,5.10
2023-12-15T16:53:23.623Z,6.77
2023-12-15T16:55:52.556Z,5.13
2023-12-15T16:58:21.748Z,5.07
2023-12-15T17:00:51.409Z,4.93
2023-12-15T17:03:19.330Z,4.20
2023-12-15T17:05:48.467Z,4.43
2023-12-15T17:08:17.961Z,5.47
2023-12-15T17:10:48.490Z,5.37
2023-12-15T17:13:20.082Z,5.20
2023-12-15T17:15:51.207Z,4.90
2023-12-15T17:18:20.126Z,4.33
2023-12-15T17:20:49.197Z,6.47
2023-12-15T17:23:20.555Z,5.37
2023-12-15T17:25:50.980Z,4.87
2023-12-15T17:28:19.831Z,5.43
2023-12-15T17:30:49.218Z,5.10
2023-12-15T17:33:20.877Z,5.43
2023-12-15T17:35:50.371Z,4.50
2023-12-15T17:38:19.800Z,6.87
2023-12-15T17:40:48.995Z,5.07
2023-12-15T17:43:24.814Z,6.10
2023-12-15T17:45:54.185Z,5.93
2023-12-15T17:48:26.802Z,6.67
2023-12-15T17:50:55.810Z,6.10
2023-12-15T17:53:23.506Z,5.43
2023-12-15T17:55:51.193Z,5.30
2023-12-15T17:58:22.457Z,5.97
2023-12-15T18:00:52.520Z,5.43
2023-12-15T18:03:22.390Z,7.40
2023-12-15T18:05:52.673Z,5.17
2023-12-15T18:08:24.129Z,4.97
2023-12-15T18:10:53.904Z,6.83
2023-12-15T18:13:24.418Z,9.07
2023-12-15T18:15:59.607Z,9.60
2023-12-15T18:18:28.906Z,8.80
2023-12-15T18:21:00.781Z,8.10
2023-12-15T18:23:29.795Z,7.77
2023-12-15T18:26:00.801Z,8.70
2023-12-15T18:28:31.272Z,9.17
2023-12-15T18:31:02.241Z,7.33
2023-12-15T18:33:31.441Z,7.53
2023-12-15T18:36:00.826Z,9.07
2023-12-15T18:38:29.529Z,13.03
2023-12-15T18:41:00.709Z,11.40
2023-12-15T18:43:30.791Z,8.60
2023-12-15T18:46:00.545Z,4.80
2023-12-15T18:48:29.824Z,5.43
2023-12-15T18:51:01.336Z,6.27
2023-12-15T18:53:29.921Z,6.80
2023-12-15T18:56:04.550Z,6.83
2023-12-15T18:58:35.230Z,6.97
2023-12-15T19:01:04.857Z,7.27
2023-12-15T19:03:33.975Z,6.80
2023-12-15T19:06:03.074Z,7.63
2023-12-15T19:08:33.651Z,7.80
2023-12-15T19:11:02.477Z,9.90
2023-12-15T19:13:31.386Z,7.83
2023-12-15T19:16:12.063Z,10.60
2023-12-15T19:18:41.180Z,7.73
2023-12-15T19:21:10.799Z,6.80
2023-12-15T19:23:39.899Z,8.80
2023-12-15T19:26:09.432Z,8.17
2023-12-15T19:28:40.827Z,8.37
2023-12-15T19:31:11.502Z,10.00
2023-12-15T19:33:41.991Z,8.37
2023-12-15T19:36:11.130Z,9.00
2023-12-15T19:38:42.776Z,9.10
2023-12-15T19:41:19.506Z,9.00
2023-12-15T19:43:48.254Z,8.50
2023-12-15T19:46:22.946Z,12.70
2023-12-15T19:48:52.863Z,8.33
2023-12-15T19:51:22.432Z,8.37
2023-12-15T19:53:52.166Z,6.70
2023-12-15T19:56:24.242Z,6.30
2023-12-15T19:58:55.836Z,6.67
2023-12-15T20:01:27.214Z,6.70
2023-12-15T20:03:58.885Z,7.23
2023-12-15T20:06:29.186Z,7.10
2023-12-15T20:09:01.069Z,7.80
2023-12-15T20:11:29.825Z,7.07
2023-12-15T20:13:59.736Z,6.40
2023-12-15T20:16:33.175Z,6.10
2023-12-15T20:19:04.404Z,7.90
2023-12-15T20:21:33.969Z,7.37
2023-12-15T20:24:05.351Z,7.80
2023-12-15T20:26:34.334Z,6.10
2023-12-15T20:29:07.804Z,6.77
2023-12-15T20:31:40.469Z,6.47
2023-12-15T20:34:09.422Z,9.00
2023-12-15T20:36:40.850Z,6.30
2023-12-15T20:39:09.709Z,6.77
2023-12-15T20:41:40.701Z,8.50
2023-12-15T20:44:12.353Z,7.03
2023-12-15T20:46:49.530Z,8.07
2023-12-15T20:49:21.189Z,6.93
2023-12-15T20:51:50.339Z,6.60
2023-12-15T20:54:19.681Z,7.37
2023-12-15T20:56:48.517Z,8.23
2023-12-15T20:59:19.919Z,6.73
2023-12-15T21:01:52.304Z,7.10
2023-12-15T21:04:21.571Z,7.70
2023-12-15T21:06:51.542Z,7.90
2023-12-15T21:09:20.553Z,6.83
2023-12-15T21:11:51.485Z,7.17
2023-12-15T21:14:21.100Z,6.73
2023-12-15T21:16:51.420Z,8.47
2023-12-15T21:19:20.308Z,5.73
2023-12-15T21:21:49.378Z,6.83
2023-12-15T21:24:21.379Z,8.90
2023-12-15T21:26:50.359Z,7.80
2023-12-15T21:29:20.138Z,7.03
2023-12-15T21:31:50.292Z,7.80
2023-12-15T21:34:31.359Z,10.73
2023-12-15T21:37:00.420Z,6.37
2023-12-15T21:39:29.490Z,10.80
2023-12-15T21:42:00.847Z,9.27
2023-12-15T21:44:29.930Z,10.00
2023-12-15T21:47:01.117Z,7.27
2023-12-15T21:49:36.268Z,7.03
2023-12-15T21:52:06.228Z,8.20
2023-12-15T21:54:35.498Z,8.57
2023-12-15T21:57:10.320Z,8.57
2023-12-15T21:59:40.325Z,9.43
2023-12-15T22:02:09.525Z,8.83
2023-12-15T22:04:43.095Z,7.53
2023-12-15T22:07:11.896Z,8.23
2023-12-15T22:09:40.592Z,9.07
2023-12-15T22:12:10.540Z,9.57
2023-12-15T22:14:45.093Z,9.60
2023-12-15T22:17:14.861Z,7.90
2023-12-15T22:19:48.321Z,8.07
2023-12-15T22:22:18.556Z,8.57
2023-12-15T22:24:47.751Z,6.90
2023-12-15T22:27:18.769Z,7.97
2023-12-15T22:29:47.669Z,8.70
2023-12-15T22:32:19.021Z,7.77
2023-12-15T22:34:49.125Z,8.23
2023-12-15T22:37:20.560Z,9.00
2023-12-15T22:39:50.583Z,10.27
2023-12-15T22:42:19.940Z,8.07
2023-12-15T22:44:52.127Z,6.40
2023-12-15T22:47:21.012Z,9.23
2023-12-15T22:49:51.675Z,9.43
2023-12-15T22:52:20.829Z,8.10
2023-12-15T22:54:49.752Z,6.47
2023-12-15T22:57:18.724Z,9.47
2023-12-15T22:59:47.530Z,8.70
2023-12-15T23:02:16.471Z,6.80
2023-12-15T23:04:45.312Z,9.13
2023-12-15T23:07:19.357Z,11.33
2023-12-15T23:09:48.242Z,9.23
2023-12-15T23:12:19.430Z,10.17
2023-12-15T23:14:48.456Z,9.70
2023-12-15T23:17:19.920Z,9.47
2023-12-15T23:19:48.569Z,10.33
2023-12-15T23:22:18.983Z,10.37
2023-12-15T23:24:47.722Z,11.80
2023-12-15T23:27:19.458Z,11.00
2023-12-15T23:29:48.360Z,13.07
2023-12-15T23:32:19.584Z,9.57
2023-12-15T23:34:48.504Z,7.60
2023-12-15T23:37:17.355Z,8.03
2023-12-15T23:39:47.877Z,6.17
2023-12-15T23:42:16.624Z,9.20
2023-12-15T23:44:45.511Z,8.30
2023-12-15T23:47:16.376Z,9.60
2023-12-15T23:49:45.336Z,8.20
2023-12-15T23:52:14.181Z,11.23
2023-12-15T23:54:45.544Z,8.87
2023-12-15T23:57:18.548Z,7.57
2023-12-15T23:59:47.278Z,7.87
